Terminal Aerodrome Forecast
Issued by NWS Pittsburgh, PA

Current Version | Previous Version | Graphics & Text | Print | Product List | Glossary On
Versions: 1 2 3 4 5 6 7 8 9 10 11 12 13 14 15 16 17 18 19 20 21 22 23 24 25 26 27 28 29 30
517
FTUS41 KPBZ 230843 AAA
TAFPIT
TAF AMD
KPIT 230843Z 2309/2412 19008KT P6SM -SHRA OVC025
     FM231000 19006KT 5SM -SHRA OVC015
     FM231300 21008KT 5SM -SHRA BR OVC010
     FM231600 23012G20KT 5SM SHRA VCTS OVC020CB
     FM240000 23008KT 3SM SHRA BR OVC008
     FM240400 26004KT P6SM VCSH OVC006=

USA.gov is the U.S. government's official web portal to all federal, state and local government web resources and services.